Time;durP1;ratioP1;P1;durP2;ratioP2;P2;SDS_P1;SDS_P2;PMS_P1;PMS_P2;Temp;Humidity;BMP_temperature;BMP_pressure;BME280_temperature;BME280_humidity;BME280_pressure;Samples;Min_cycle;Max_cycle;Signal;HPM_P1;HPM_P2
2021/01/17 00:00:14;;;;;;;;;;;;;;;17.50;61.30;100950.56;5045640;28;1761;-60
2021/01/17 00:02:41;;;;;;;;;;;;;;;17.46;61.04;100952.63;5041483;28;1651;-60
2021/01/17 00:05:10;;;;;;;;;;;;;;;17.42;61.37;100953.84;5047063;28;1890;-60
2021/01/17 00:07:36;;;;;;;;;;;;;;;17.40;61.79;100968.31;5040162;28;1686;-63
2021/01/17 00:10:02;;;;;;;;;;;;;;;17.35;61.47;100954.44;5043555;28;1722;-63
2021/01/17 00:12:28;;;;;;;;;;;;;;;17.34;62.02;100963.44;5024195;28;1631;-60
2021/01/17 00:14:53;;;;;;;;;;;;;;;17.28;61.27;100968.28;5023128;28;1608;-60
2021/01/17 00:17:18;;;;;;;;;;;;;;;17.24;61.31;100965.97;5015857;28;1666;-61
2021/01/17 00:19:44;;;;;;;;;;;;;;;17.23;61.28;100962.47;5033983;28;1843;-63
2021/01/17 00:22:09;;;;;;;;;;;;;;;17.22;61.25;100978.59;5043955;28;1741;-62
2021/01/17 00:24:35;;;;;;;;;;;;;;;17.22;61.85;100978.59;5040795;28;1979;-63
2021/01/17 00:27:00;;;;;;;;;;;;;;;17.21;61.26;100991.13;5042753;28;1765;-60
2021/01/17 00:29:25;;;;;;;;;;;;;;;17.19;61.26;100992.19;5044858;28;1576;-61
2021/01/17 00:31:51;;;;;;;;;;;;;;;17.18;61.29;100991.34;5046877;28;1682;-60
2021/01/17 00:34:16;;;;;;;;;;;;;;;17.17;61.06;101004.81;5046782;28;1658;-60
2021/01/17 00:36:42;;;;;;;;;;;;;;;17.14;61.65;100999.72;5044704;28;1683;-63
2021/01/17 00:39:07;;;;;;;;;;;;;;;17.15;61.94;101012.09;5050514;28;1706;-63
2021/01/17 00:41:33;;;;;;;;;;;;;;;17.08;61.63;100996.53;5042338;28;1685;-63
2021/01/17 00:43:58;;;;;;;;;;;;;;;17.08;61.08;100991.19;5027470;28;1977;-60
2021/01/17 00:46:25;;;;;;;;;;;;;;;17.13;62.67;100992.66;5042425;28;1561;-63
2021/01/17 00:48:50;;;;;;;;;;;;;;;17.13;62.32;101003.34;5046538;28;1630;-62
2021/01/17 00:51:16;;;;;;;;;;;;;;;17.06;62.28;100994.97;5044584;28;1749;-63
2021/01/17 00:53:41;;;;;;;;;;;;;;;17.15;63.34;101004.09;5046244;28;1694;-60
2021/01/17 00:56:07;;;;;;;;;;;;;;;17.24;62.62;101000.72;5040783;28;1575;-61
2021/01/17 00:58:32;;;;;;;;;;;;;;;17.15;62.20;101012.97;5021391;28;1690;-63
2021/01/17 01:00:58;;;;;;;;;;;;;;;17.08;61.18;101017.06;5045959;28;1623;-63
2021/01/17 01:03:23;;;;;;;;;;;;;;;17.05;62.53;101020.84;5046235;28;1890;-62
2021/01/17 01:05:48;;;;;;;;;;;;;;;17.01;61.91;101014.03;5036642;28;1441;-60
2021/01/17 01:08:14;;;;;;;;;;;;;;;16.98;62.20;101016.06;5018971;28;1376;-63
2021/01/17 01:10:39;;;;;;;;;;;;;;;16.93;61.79;101012.88;5053415;28;10563;-61
2021/01/17 01:13:04;;;;;;;;;;;;;;;16.92;62.38;101008.53;5075903;28;1629;-63
2021/01/17 01:15:29;;;;;;;;;;;;;;;16.89;61.87;101023.81;5076356;28;1824;-63
2021/01/17 01:17:55;;;;;;;;;;;;;;;16.88;62.77;101018.59;5076201;28;1689;-63
2021/01/17 01:20:20;;;;;;;;;;;;;;;16.86;62.65;101017.84;5075644;28;1748;-61
2021/01/17 01:22:46;;;;;;;;;;;;;;;16.83;62.47;101020.72;5075969;28;1369;-61
2021/01/17 01:25:11;;;;;;;;;;;;;;;16.81;61.64;101011.94;5058131;28;1909;-62
2021/01/17 01:27:36;;;;;;;;;;;;;;;16.82;61.93;101021.72;5058487;28;1697;-61
2021/01/17 01:30:03;;;;;;;;;;;;;;;16.79;61.53;101024.56;5075041;28;1626;-61
2021/01/17 01:32:28;;;;;;;;;;;;;;;16.81;62.83;101031.56;5075463;28;1577;-61
2021/01/17 01:34:53;;;;;;;;;;;;;;;16.81;62.61;101025.31;5075887;28;1590;-61
2021/01/17 01:37:19;;;;;;;;;;;;;;;16.80;61.59;101021.78;5074784;28;1736;-61
2021/01/17 01:39:44;;;;;;;;;;;;;;;16.76;61.55;101012.31;5075153;28;1702;-63
2021/01/17 01:42:09;;;;;;;;;;;;;;;16.79;61.69;101020.09;5073569;28;1677;-63
2021/01/17 01:44:35;;;;;;;;;;;;;;;16.75;62.48;101009.75;5075031;28;1956;-61
2021/01/17 01:47:01;;;;;;;;;;;;;;;16.75;61.81;101012.41;5075177;28;1665;-61
2021/01/17 01:49:27;;;;;;;;;;;;;;;16.74;62.19;101005.38;5074278;28;1619;-64
2021/01/17 01:51:53;;;;;;;;;;;;;;;16.73;62.42;101006.34;5075233;28;1606;-61
2021/01/17 01:54:19;;;;;;;;;;;;;;;16.75;62.77;101009.75;5074384;28;1737;-63
2021/01/17 01:56:44;;;;;;;;;;;;;;;16.75;61.51;101005.28;5057491;28;1543;-63
2021/01/17 01:59:10;;;;;;;;;;;;;;;16.70;61.46;101008.28;5074691;28;1740;-63
2021/01/17 02:01:35;;;;;;;;;;;;;;;16.72;61.15;101007.31;5074449;28;1665;-62
2021/01/17 02:04:00;;;;;;;;;;;;;;;16.67;62.09;101005.84;5074893;28;1898;-63
2021/01/17 02:06:26;;;;;;;;;;;;;;;16.68;61.20;101004.88;5074176;28;1564;-63
2021/01/17 02:09:11;;;;;;;;;;;;;;;16.67;62.34;101010.31;5074738;28;1554;-62
2021/01/17 02:11:57;;;;;;;;;;;;;;;16.67;62.10;101003.19;5072686;28;1563;-61
2021/01/17 02:14:38;;;;;;;;;;;;;;;16.62;61.45;101010.66;5074547;28;1661;-61
2021/01/17 02:17:17;;;;;;;;;;;;;;;16.61;61.23;100998.28;5074626;28;1558;-62
2021/01/17 02:19:52;;;;;;;;;;;;;;;16.58;62.56;100995.84;5074170;28;1645;-62
2021/01/17 02:22:17;;;;;;;;;;;;;;;16.59;61.73;100997.56;5073508;28;1669;-60
2021/01/17 02:24:57;;;;;;;;;;;;;;;16.61;62.24;100997.41;5074232;28;1917;-63
2021/01/17 02:27:23;;;;;;;;;;;;;;;16.57;61.73;100987.94;5074306;28;1582;-63
2021/01/17 02:29:50;;;;;;;;;;;;;;;16.58;61.92;100995.84;5073640;28;1712;-60
2021/01/17 02:32:17;;;;;;;;;;;;;;;16.56;62.19;100991.59;5051065;28;1463;-63
2021/01/17 02:34:43;;;;;;;;;;;;;;;16.54;62.78;100989.03;5073463;28;1654;-63
2021/01/17 02:37:20;;;;;;;;;;;;;;;16.50;62.18;100990.22;5074261;28;1697;-60
2021/01/17 02:39:55;;;;;;;;;;;;;;;16.52;61.58;100993.63;5073126;28;1702;-60
2021/01/17 02:42:20;;;;;;;;;;;;;;;16.52;62.78;100998.13;5056844;28;1610;-63
2021/01/17 02:44:46;;;;;;;;;;;;;;;16.55;62.67;100993.38;5074578;28;1893;-60
2021/01/17 02:47:11;;;;;;;;;;;;;;;16.58;63.30;100992.31;5074067;28;1547;-63
2021/01/17 02:49:37;;;;;;;;;;;;;;;16.60;63.19;100988.56;5056702;28;1633;-60
2021/01/17 02:52:04;;;;;;;;;;;;;;;16.59;63.58;100986.00;5072650;28;1670;-63
2021/01/17 02:54:32;;;;;;;;;;;;;;;16.59;63.92;100994.00;5056190;28;1582;-60
2021/01/17 02:57:02;;;;;;;;;;;;;;;16.61;64.46;100992.97;5073387;28;1511;-62
2021/01/17 02:59:31;;;;;;;;;;;;;;;16.62;63.71;100989.31;5066546;28;1613;-61
2021/01/17 03:01:57;;;;;;;;;;;;;;;16.61;63.61;101003.63;5064648;23;2001;-54
2021/01/17 03:04:38;;;;;;;;;;;;;;;16.58;64.09;100982.50;5052718;28;1902;-54
2021/01/17 03:07:05;;;;;;;;;;;;;;;16.55;64.42;100977.38;5050907;28;1864;-56
2021/01/17 03:09:30;;;;;;;;;;;;;;;16.56;64.15;101000.44;5038076;28;1775;-54
2021/01/17 03:11:56;;;;;;;;;;;;;;;16.53;63.49;100995.31;5105929;23;3506;-60
2021/01/17 03:14:22;;;;;;;;;;;;;;;16.49;63.81;100986.72;5103402;28;1581;-62
2021/01/17 03:16:47;;;;;;;;;;;;;;;16.48;64.08;100981.47;5083177;28;1641;-63
2021/01/17 03:19:13;;;;;;;;;;;;;;;16.48;63.36;100982.31;5102707;28;1661;-61
2021/01/17 03:21:38;;;;;;;;;;;;;;;16.49;63.30;100989.38;5105729;28;1661;-62
2021/01/17 03:24:03;;;;;;;;;;;;;;;16.43;62.71;100978.28;5105087;28;1970;-62
2021/01/17 03:26:29;;;;;;;;;;;;;;;16.46;63.71;100983.41;5080127;28;1618;-63
2021/01/17 03:28:54;;;;;;;;;;;;;;;16.40;62.61;100978.53;5104684;28;1673;-60
2021/01/17 03:31:19;;;;;;;;;;;;;;;16.40;62.52;100987.38;5109144;28;1739;-60
2021/01/17 03:33:45;;;;;;;;;;;;;;;16.38;63.86;100980.47;5092903;28;1612;-60
2021/01/17 03:36:10;;;;;;;;;;;;;;;16.37;62.90;100979.59;5093634;28;1751;-63
2021/01/17 03:38:36;;;;;;;;;;;;;;;16.35;63.70;100960.16;5102386;28;1578;-60
2021/01/17 03:41:01;;;;;;;;;;;;;;;16.34;62.47;100974.50;5102795;28;1696;-62
2021/01/17 03:43:26;;;;;;;;;;;;;;;16.33;63.59;100979.94;5103397;28;1885;-60
2021/01/17 03:45:52;;;;;;;;;;;;;;;16.32;63.09;100986.25;5102530;28;1752;-66
2021/01/17 03:48:17;;;;;;;;;;;;;;;16.29;63.00;100977.50;5104335;28;1809;-60
2021/01/17 03:50:42;;;;;;;;;;;;;;;16.33;64.03;100967.44;5106185;28;1676;-61
2021/01/17 03:53:08;;;;;;;;;;;;;;;16.35;63.28;100970.00;5105204;28;1538;-60
2021/01/17 03:55:33;;;;;;;;;;;;;;;16.34;64.09;100968.31;5100352;28;1653;-62
2021/01/17 03:57:59;;;;;;;;;;;;;;;16.31;64.17;100961.34;5102472;28;1665;-60
2021/01/17 04:00:24;;;;;;;;;;;;;;;16.35;63.65;100970.84;5102743;28;1581;-60
2021/01/17 04:02:50;;;;;;;;;;;;;;;16.29;63.19;100964.16;5120981;28;1601;-63
2021/01/17 04:05:15;;;;;;;;;;;;;;;16.33;64.47;100972.78;5124791;27;1960;-60
2021/01/17 04:07:40;;;;;;;;;;;;;;;16.33;64.08;100977.25;5125717;27;1616;-61
2021/01/17 04:10:06;;;;;;;;;;;;;;;16.33;63.65;100971.94;5127561;27;1731;-60
2021/01/17 04:12:32;;;;;;;;;;;;;;;16.33;63.69;100972.78;5130171;27;1509;-60
2021/01/17 04:14:57;;;;;;;;;;;;;;;16.30;64.07;100971.19;5129762;27;1639;-63
2021/01/17 04:17:23;;;;;;;;;;;;;;;16.33;64.02;100969.25;5125998;27;1755;-62
2021/01/17 04:19:48;;;;;;;;;;;;;;;16.30;62.70;100963.19;5123850;27;1695;-63
2021/01/17 04:22:13;;;;;;;;;;;;;;;16.28;63.49;100965.13;5134252;27;1694;-60
2021/01/17 04:24:39;;;;;;;;;;;;;;;16.30;62.95;100957.84;5124237;27;2061;-62
2021/01/17 04:27:04;;;;;;;;;;;;;;;16.29;62.55;100972.16;5130469;27;1804;-60
2021/01/17 04:29:29;;;;;;;;;;;;;;;16.27;62.91;100963.44;5129745;27;1747;-60
2021/01/17 04:31:58;;;;;;;;;;;;;;;16.27;62.49;100958.09;5126431;27;1672;-63
2021/01/17 04:34:24;;;;;;;;;;;;;;;16.25;62.59;100960.00;5103465;28;1780;-61
2021/01/17 04:36:49;;;;;;;;;;;;;;;16.24;63.47;100968.13;5124800;27;1743;-60
2021/01/17 04:39:14;;;;;;;;;;;;;;;16.22;62.66;100973.56;5127719;27;1683;-63
2021/01/17 04:41:44;;;;;;;;;;;;;;;16.19;62.35;100962.25;5131347;27;1632;-60
2021/01/17 04:44:10;;;;;;;;;;;;;;;16.19;62.38;100979.13;5100757;27;1886;-60
2021/01/17 04:46:36;;;;;;;;;;;;;;;16.18;62.54;100974.75;5122701;27;1735;-63
2021/01/17 04:49:03;;;;;;;;;;;;;;;16.17;62.98;100988.22;5129265;27;1596;-63
2021/01/17 04:51:29;;;;;;;;;;;;;;;16.17;62.31;100989.03;5096766;28;1625;-61
2021/01/17 04:53:57;;;;;;;;;;;;;;;16.13;62.34;100987.56;5121852;27;1724;-63
2021/01/17 04:56:25;;;;;;;;;;;;;;;16.12;62.74;100985.88;5126875;27;1720;-62
2021/01/17 04:59:10;;;;;;;;;;;;;;;16.11;62.30;100992.16;5127771;27;1739;-60
2021/01/17 05:01:48;;;;;;;;;;;;;;;16.13;62.47;100994.72;5095603;28;1672;-60
2021/01/17 05:04:16;;;;;;;;;;;;;;;16.12;62.45;101001.88;5126307;27;1901;-62
2021/01/17 05:06:44;;;;;;;;;;;;;;;16.08;62.65;101005.75;5133335;27;1468;-62
2021/01/17 05:09:10;;;;;;;;;;;;;;;16.08;62.91;100987.06;5102416;27;1644;-60
2021/01/17 05:11:39;;;;;;;;;;;;;;;16.10;62.32;100993.16;5130015;27;1605;-60
2021/01/17 05:14:09;;;;;;;;;;;;;;;16.07;62.24;100990.69;5105440;27;1629;-63
2021/01/17 05:16:37;;;;;;;;;;;;;;;16.04;63.06;100988.25;5107999;27;1549;-63
2021/01/17 05:19:02;;;;;;;;;;;;;;;16.04;62.88;100978.44;5126198;27;1589;-62
2021/01/17 05:21:31;;;;;;;;;;;;;;;16.05;62.26;100990.78;5130742;27;1659;-61
2021/01/17 05:23:59;;;;;;;;;;;;;;;16.09;62.04;100992.31;5121955;27;1986;-62
2021/01/17 05:26:25;;;;;;;;;;;;;;;16.11;62.28;100989.50;5125377;27;1410;-60
2021/01/17 05:28:50;;;;;;;;;;;;;;;16.13;62.74;101000.91;5129297;27;1735;-60
2021/01/17 05:31:17;;;;;;;;;;;;;;;16.17;61.97;100994.38;5102900;27;1585;-63
2021/01/17 05:33:42;;;;;;;;;;;;;;;16.14;63.03;100986.63;5127554;27;1537;-62
2021/01/17 05:36:13;;;;;;;;;;;;;;;16.16;63.49;100992.69;5086653;27;10798;-63
2021/01/17 05:38:39;;;;;;;;;;;;;;;16.15;63.23;100996.31;5098180;27;1558;-63
2021/01/17 05:41:04;;;;;;;;;;;;;;;16.14;62.55;100991.13;5121611;27;1480;-60
2021/01/17 05:43:29;;;;;;;;;;;;;;;16.13;63.63;100998.25;5118332;27;1898;-60
2021/01/17 05:45:55;;;;;;;;;;;;;;;16.13;62.33;100998.25;5124186;27;1493;-63
2021/01/17 05:48:20;;;;;;;;;;;;;;;16.10;63.41;100993.16;5071071;27;10874;-61
2021/01/17 05:50:45;;;;;;;;;;;;;;;16.09;61.92;101008.31;5123973;27;1747;-63
2021/01/17 05:53:11;;;;;;;;;;;;;;;16.06;62.16;101007.66;5112120;27;1577;-63
2021/01/17 05:55:36;;;;;;;;;;;;;;;16.05;63.06;101008.63;5107402;28;1616;-60
2021/01/17 05:58:23;;;;;;;;;;;;;;;16.01;62.39;101004.47;5118944;27;1656;-60
2021/01/17 06:00:53;;;;;;;;;;;;;;;16.02;62.25;101016.84;5121888;27;1445;-62
2021/01/17 06:03:20;;;;;;;;;;;;;;;16.00;62.03;101014.28;5123027;27;1967;-62
2021/01/17 06:05:47;;;;;;;;;;;;;;;16.00;62.42;101013.44;5124466;27;1568;-62
2021/01/17 06:08:16;;;;;;;;;;;;;;;15.98;62.63;101021.56;5106535;27;1639;-62
2021/01/17 06:10:44;;;;;;;;;;;;;;;15.97;62.78;101027.00;5116940;27;1648;-62
2021/01/17 06:13:09;;;;;;;;;;;;;;;15.95;62.31;101015.56;5101131;28;1617;-60
2021/01/17 06:15:35;;;;;;;;;;;;;;;15.96;62.35;101023.47;5108034;28;1604;-63
2021/01/17 06:18:03;;;;;;;;;;;;;;;15.94;62.76;101027.22;5102540;28;1597;-60
2021/01/17 06:20:28;;;;;;;;;;;;;;;15.93;62.14;101028.16;5098824;28;1372;-63
2021/01/17 06:22:57;;;;;;;;;;;;;;;15.93;63.02;101033.50;5107725;28;1739;-60
2021/01/17 06:25:32;;;;;;;;;;;;;;;15.92;63.21;101027.31;5100357;28;1902;-60
2021/01/17 06:28:06;;;;;;;;;;;;;;;16.17;61.43;101022.88;5104217;28;1636;-60
2021/01/17 06:30:32;;;;;;;;;;;;;;;16.36;61.09;101025.09;5100429;28;1621;-60
2021/01/17 06:32:57;;;;;;;;;;;;;;;16.57;62.08;101023.50;5106986;28;1407;-62
2021/01/17 06:35:29;;;;;;;;;;;;;;;16.73;60.57;101022.34;5083763;28;1657;-60
2021/01/17 06:37:55;;;;;;;;;;;;;;;16.80;61.60;101032.47;5104651;28;1881;-60
2021/01/17 06:40:29;;;;;;;;;;;;;;;16.90;60.90;101038.84;5105070;28;1759;-64
2021/01/17 06:42:55;;;;;;;;;;;;;;;16.98;60.04;101024.94;5105791;28;1661;-60
2021/01/17 06:45:20;;;;;;;;;;;;;;;17.09;60.40;101035.66;5110376;28;1952;-60
2021/01/17 06:47:55;;;;;;;;;;;;;;;17.18;59.80;101034.09;5102904;28;1369;-62
2021/01/17 06:50:23;;;;;;;;;;;;;;;17.45;60.32;101024.94;5101558;28;1845;-60
2021/01/17 06:52:57;;;;;;;;;;;;;;;17.65;59.00;101023.41;5094584;28;1746;-60
2021/01/17 06:55:23;;;;;;;;;;;;;;;17.87;58.75;101039.47;5095956;28;1798;-63
2021/01/17 06:57:48;;;;;;;;;;;;;;;17.93;59.09;101034.63;5100898;28;1640;-64
2021/01/17 07:00:15;;;;;;;;;;;;;;;18.04;58.57;101021.22;5090074;28;1582;-61
2021/01/17 07:02:49;;;;;;;;;;;;;;;18.14;58.61;101019.50;5102720;28;1641;-62
2021/01/17 07:05:33;;;;;;;;;;;;;;;18.32;56.89;101029.69;5105852;28;1909;-72
2021/01/17 07:08:16;;;;;;;;;;;;;;;18.69;57.06;101033.72;5099167;28;1704;-63
2021/01/17 07:10:43;;;;;;;;;;;;;;;18.64;58.21;101033.28;5096487;28;1649;-68
2021/01/17 07:13:09;;;;;;;;;;;;;;;18.56;54.98;101018.81;5095605;28;1399;-62
2021/01/17 07:15:38;;;;;;;;;;;;;;;18.79;56.10;101024.94;5107784;28;1684;-63
2021/01/17 07:18:08;;;;;;;;;;;;;;;18.90;56.85;101024.06;5091337;28;1641;-65
2021/01/17 07:20:35;;;;;;;;;;;;;;;18.82;57.01;101022.03;5109571;28;1660;-64
2021/01/17 07:23:01;;;;;;;;;;;;;;;18.80;58.71;101018.63;5086208;28;1688;-62
2021/01/17 07:25:27;;;;;;;;;;;;;;;18.81;58.30;101021.19;5091633;28;2046;-65
2021/01/17 07:28:09;;;;;;;;;;;;;;;18.97;56.90;101011.88;5103977;28;1519;-65
2021/01/17 07:30:45;;;;;;;;;;;;;;;19.04;57.38;101013.91;5076593;28;1368;-64
2021/01/17 07:33:11;;;;;;;;;;;;;;;19.00;57.87;101020.50;5097293;28;1662;-62
2021/01/17 07:35:38;;;;;;;;;;;;;;;19.03;57.10;101014.88;5096338;28;1550;-60
2021/01/17 07:38:08;;;;;;;;;;;;;;;18.91;57.79;101036.50;5097391;28;1470;-66
2021/01/17 07:40:50;;;;;;;;;;;;;;;18.87;58.26;101031.38;5077663;28;1656;-68
2021/01/17 07:43:15;;;;;;;;;;;;;;;18.84;57.88;101025.44;5097377;28;1166;-63
2021/01/17 07:45:41;;;;;;;;;;;;;;;18.84;58.35;101017.38;5098245;28;1945;-63
2021/01/17 07:48:11;;;;;;;;;;;;;;;18.72;58.87;101019.25;5084044;28;1457;-63
2021/01/17 07:50:38;;;;;;;;;;;;;;;18.62;59.31;101021.84;5099084;28;1532;-64
2021/01/17 07:53:05;;;;;;;;;;;;;;;18.59;58.77;101029.28;5100983;28;1349;-64
2021/01/17 07:55:32;;;;;;;;;;;;;;;18.53;59.17;101030.63;5077071;28;1359;-63
2021/01/17 07:57:57;;;;;;;;;;;;;;;18.52;59.11;101030.75;5103368;28;1384;-64
2021/01/17 08:00:24;;;;;;;;;;;;;;;18.45;59.21;101025.91;5086935;28;1369;-63
2021/01/17 08:02:49;;;;;;;;;;;;;;;18.47;59.72;101040.00;5097534;28;1348;-64
2021/01/17 08:05:15;;;;;;;;;;;;;;;18.37;60.43;101036.38;5097059;28;1883;-63
2021/01/17 08:07:40;;;;;;;;;;;;;;;18.37;59.66;101046.25;5101803;28;1393;-63
2021/01/17 08:10:06;;;;;;;;;;;;;;;18.36;59.81;101036.50;5106249;28;1673;-64
2021/01/17 08:12:36;;;;;;;;;;;;;;;18.36;59.33;101044.53;5124100;27;1339;-63
2021/01/17 08:15:11;;;;;;;;;;;;;;;18.43;58.80;101027.00;5118484;27;1331;-63
2021/01/17 08:17:37;;;;;;;;;;;;;;;18.44;59.90;101031.38;5109935;27;1447;-64
2021/01/17 08:20:03;;;;;;;;;;;;;;;18.33;60.26;101032.25;5098836;27;1323;-63
2021/01/17 08:22:29;;;;;;;;;;;;;;;18.27;59.53;101028.25;5092166;27;11276;-63
2021/01/17 08:24:56;;;;;;;;;;;;;;;18.28;60.41;101034.44;5126554;27;1921;-64
2021/01/17 08:27:27;;;;;;;;;;;;;;;18.26;60.47;101034.59;5101867;27;1558;-64
2021/01/17 08:30:11;;;;;;;;;;;;;;;18.26;60.24;101041.75;5117861;27;1320;-64
2021/01/17 08:32:36;;;;;;;;;;;;;;;18.27;60.03;101035.44;5112479;27;1541;-64
2021/01/17 08:35:20;;;;;;;;;;;;;;;18.30;59.83;101043.19;5116312;27;1533;-64
2021/01/17 08:37:46;;;;;;;;;;;;;;;18.36;60.39;101044.53;5107562;27;1561;-63
2021/01/17 08:40:15;;;;;;;;;;;;;;;18.31;60.02;101044.06;5118943;27;1482;-64
2021/01/17 08:42:50;;;;;;;;;;;;;;;18.29;60.39;101042.34;5105935;27;1549;-63
2021/01/17 08:45:19;;;;;;;;;;;;;;;18.29;60.60;101047.72;5122662;27;1889;-63
2021/01/17 08:47:44;;;;;;;;;;;;;;;18.31;59.92;101049.44;5122478;27;1656;-64
2021/01/17 08:50:25;;;;;;;;;;;;;;;18.28;60.31;101050.50;5118660;27;1521;-63
2021/01/17 08:52:51;;;;;;;;;;;;;;;18.28;60.38;101051.38;5117752;27;1520;-62
2021/01/17 08:55:34;;;;;;;;;;;;;;;18.27;60.36;101049.66;5103645;27;1553;-63
2021/01/17 08:57:59;;;;;;;;;;;;;;;18.25;60.18;101056.13;5124085;27;1446;-64
2021/01/17 09:00:44;;;;;;;;;;;;;;;18.23;60.79;101053.56;5103653;27;1446;-64
2021/01/17 09:03:22;;;;;;;;;;;;;;;18.23;60.35;101056.25;5102429;27;1554;-63
2021/01/17 09:05:47;;;;;;;;;;;;;;;18.29;60.66;101061.09;5105599;27;1989;-64
2021/01/17 09:08:13;;;;;;;;;;;;;;;18.38;60.04;101061.31;5120652;27;1490;-63
2021/01/17 09:10:38;;;;;;;;;;;;;;;18.29;60.49;101063.78;5103925;28;1510;-64
2021/01/17 09:13:04;;;;;;;;;;;;;;;18.28;60.77;101058.53;5120000;27;1514;-64
2021/01/17 09:15:31;;;;;;;;;;;;;;;18.26;61.17;101069.41;5124853;27;1486;-63
2021/01/17 09:18:00;;;;;;;;;;;;;;;18.24;60.69;101055.28;5119872;27;1529;-64
2021/01/17 09:20:26;;;;;;;;;;;;;;;18.23;60.51;101048.22;5099542;28;1454;-63
2021/01/17 09:22:55;;;;;;;;;;;;;;;18.24;60.63;101063.31;5103010;28;1620;-64
2021/01/17 09:25:21;;;;;;;;;;;;;;;18.22;60.58;101051.88;5120463;27;1913;-63
2021/01/17 09:27:49;;;;;;;;;;;;;;;18.22;60.53;101053.69;5100356;28;1611;-64
2021/01/17 09:30:14;;;;;;;;;;;;;;;18.26;60.97;101066.72;5115463;27;1514;-64
2021/01/17 09:32:40;;;;;;;;;;;;;;;18.22;60.43;101043.84;5118876;27;1478;-63
2021/01/17 09:35:06;;;;;;;;;;;;;;;18.21;61.05;101041.28;5121206;27;1525;-64
2021/01/17 09:37:32;;;;;;;;;;;;;;;18.24;61.13;101051.72;5111765;27;1297;-64
2021/01/17 09:39:57;;;;;;;;;;;;;;;18.23;60.98;101040.19;5098344;28;1387;-64
2021/01/17 09:42:24;;;;;;;;;;;;;;;18.23;60.62;101040.19;5120217;27;1556;-64
2021/01/17 09:44:53;;;;;;;;;;;;;;;18.24;60.61;101033.88;5116041;27;1890;-64
2021/01/17 09:47:20;;;;;;;;;;;;;;;18.27;60.80;101055.00;5119541;27;1455;-63
2021/01/17 09:49:46;;;;;;;;;;;;;;;18.25;60.28;101035.56;5120466;27;1482;-63
2021/01/17 09:52:13;;;;;;;;;;;;;;;18.23;60.69;101050.88;5126198;27;1534;-63
2021/01/17 09:54:38;;;;;;;;;;;;;;;18.26;60.37;101050.66;5118301;27;1471;-64
2021/01/17 09:57:12;;;;;;;;;;;;;;;18.22;60.71;101033.13;5117036;27;1323;-64
2021/01/17 09:59:38;;;;;;;;;;;;;;;18.23;60.83;101032.16;5124141;27;1505;-63
2021/01/17 10:02:04;;;;;;;;;;;;;;;18.26;60.69;101031.03;5118482;27;1533;-63
2021/01/17 10:04:30;;;;;;;;;;;;;;;18.27;60.90;101030.09;5124004;27;1898;-63
2021/01/17 10:06:56;;;;;;;;;;;;;;;18.26;60.91;101031.91;5112529;28;1603;-63
2021/01/17 10:09:22;;;;;;;;;;;;;;;18.27;60.87;101033.59;5112178;27;1564;-63
2021/01/17 10:12:14;;;;;;;;;;;;;;;18.26;60.56;101029.25;5099317;28;1430;-63
2021/01/17 10:14:40;;;;;;;;;;;;;;;18.25;60.89;101030.19;5093725;28;1455;-64
2021/01/17 10:17:06;;;;;;;;;;;;;;;18.24;60.86;101023.16;5102959;28;1573;-63
2021/01/17 10:19:38;;;;;;;;;;;;;;;18.33;60.57;101028.75;5117825;27;1525;-64
2021/01/17 10:22:05;;;;;;;;;;;;;;;18.32;60.93;101027.03;5116671;27;1282;-62
2021/01/17 10:24:32;;;;;;;;;;;;;;;18.32;60.52;101029.69;5115772;27;1930;-63
2021/01/17 10:26:58;;;;;;;;;;;;;;;18.34;60.76;101027.75;5102612;28;1498;-64
2021/01/17 10:29:25;;;;;;;;;;;;;;;18.36;60.60;101041.84;5124654;27;1450;-64
2021/01/17 10:31:53;;;;;;;;;;;;;;;18.34;61.19;101035.78;5114918;27;1414;-63
2021/01/17 10:34:22;;;;;;;;;;;;;;;18.42;60.35;101036.00;5122501;27;1394;-65
2021/01/17 10:36:48;;;;;;;;;;;;;;;18.44;60.40;101032.25;5113050;27;1399;-62
2021/01/17 10:39:17;;;;;;;;;;;;;;;18.45;60.18;101033.09;5123426;27;1521;-64
2021/01/17 10:41:43;;;;;;;;;;;;;;;18.47;59.93;101017.75;5109283;27;1372;-61
2021/01/17 10:44:11;;;;;;;;;;;;;;;18.57;60.62;101033.91;5119097;27;1948;-63
2021/01/17 10:46:37;;;;;;;;;;;;;;;18.59;60.74;101026.59;5098665;28;1379;-63
2021/01/17 10:49:12;;;;;;;;;;;;;;;18.55;61.10;101035.88;5116978;27;1514;-63
2021/01/17 10:51:42;;;;;;;;;;;;;;;18.44;61.10;101029.56;5109726;27;1454;-63
2021/01/17 10:54:09;;;;;;;;;;;;;;;18.41;61.41;101029.81;5106491;27;1479;-63
2021/01/17 10:56:35;;;;;;;;;;;;;;;18.39;61.51;101031.75;5121458;27;1470;-64
2021/01/17 10:59:08;;;;;;;;;;;;;;;18.40;60.91;101022.75;5121828;27;1470;-64
2021/01/17 11:01:34;;;;;;;;;;;;;;;18.41;60.37;101019.09;5097101;27;1391;-63
2021/01/17 11:04:00;;;;;;;;;;;;;;;18.43;60.90;101021.66;5108844;27;1898;-63
2021/01/17 11:06:26;;;;;;;;;;;;;;;18.44;60.85;101017.97;5119453;27;1418;-63
2021/01/17 11:08:55;;;;;;;;;;;;;;;18.52;60.86;101030.75;5109681;28;1288;-64
2021/01/17 11:11:29;;;;;;;;;;;;;;;18.46;60.16;101021.38;5084371;28;1522;-63
2021/01/17 11:13:55;;;;;;;;;;;;;;;18.48;61.13;101030.13;5096250;28;1396;-63
2021/01/17 11:16:34;;;;;;;;;;;;;;;18.57;60.73;101023.19;5093705;28;1431;-63
2021/01/17 11:18:59;;;;;;;;;;;;;;;18.55;60.21;101017.97;5071708;28;1368;-64
2021/01/17 11:21:25;;;;;;;;;;;;;;;18.54;59.54;101021.59;5090398;28;1369;-68
2021/01/17 11:23:53;;;;;;;;;;;;;;;18.60;60.27;101023.81;5079026;28;1913;-63
2021/01/17 11:26:21;;;;;;;;;;;;;;;18.62;59.65;101019.16;5100248;28;1479;-62
2021/01/17 11:28:50;;;;;;;;;;;;;;;18.65;60.08;101021.56;5096526;28;1471;-64
2021/01/17 11:31:16;;;;;;;;;;;;;;;18.72;59.04;101013.03;5094772;28;1530;-65
2021/01/17 11:33:42;;;;;;;;;;;;;;;18.70;58.65;101007.78;5073936;28;1471;-60
2021/01/17 11:36:07;;;;;;;;;;;;;;;18.68;58.66;101010.63;5093340;28;1404;-58
2021/01/17 11:38:45;;;;;;;;;;;;;;;18.84;57.56;100987.91;5096970;28;1533;-63
2021/01/17 11:41:11;;;;;;;;;;;;;;;18.91;57.52;101007.03;5100776;28;1518;-63
2021/01/17 11:43:36;;;;;;;;;;;;;;;18.97;56.80;101004.66;5076761;28;1890;-60
2021/01/17 11:46:05;;;;;;;;;;;;;;;18.94;56.54;101017.47;5093952;28;1218;-61
2021/01/17 11:48:32;;;;;;;;;;;;;;;18.99;56.35;101008.06;5098091;28;1553;-66
2021/01/17 11:50:57;;;;;;;;;;;;;;;19.15;56.36;101015.66;5095619;28;1466;-67
2021/01/17 11:53:25;;;;;;;;;;;;;;;19.03;56.82;101004.16;5094525;28;1471;-61
2021/01/17 11:55:50;;;;;;;;;;;;;;;19.03;57.02;101014.03;5107407;28;1549;-63
2021/01/17 11:58:16;;;;;;;;;;;;;;;19.10;57.36;100998.25;5076441;28;1483;-62
2021/01/17 12:00:49;;;;;;;;;;;;;;;19.04;57.33;100999.66;5099605;28;1595;-62
2021/01/17 12:03:24;;;;;;;;;;;;;;;18.96;57.47;101016.38;5113502;28;1622;-58
2021/01/17 12:06:10;;;;;;;;;;;;;;;19.00;58.17;101019.63;5112135;28;1890;-61
2021/01/17 12:08:53;;;;;;;;;;;;;;;18.85;56.71;101003.03;5074925;28;800;-59
2021/01/17 12:11:37;;;;;;;;;;;;;;;18.84;58.00;101006.66;5056472;28;1340;-60
2021/01/17 12:14:05;;;;;;;;;;;;;;;18.89;56.41;101017.88;5086065;28;1245;-58
2021/01/17 12:16:32;;;;;;;;;;;;;;;18.84;58.31;101007.53;5076592;28;1159;-61
2021/01/17 12:18:58;;;;;;;;;;;;;;;18.73;58.22;101004.88;5093544;28;1164;-57
2021/01/17 12:21:24;;;;;;;;;;;;;;;18.65;58.29;101021.56;5094476;28;718;-58
2021/01/17 12:23:49;;;;;;;;;;;;;;;18.56;59.32;101030.38;5094443;28;1914;-62
2021/01/17 12:26:15;;;;;;;;;;;;;;;17.20;57.20;101031.31;5094718;28;770;-56
2021/01/17 12:28:41;;;;;;;;;;;;;;;15.91;54.81;101030.94;5097776;28;927;-56
2021/01/17 12:31:10;;;;;;;;;;;;;;;15.55;52.00;101035.19;5098236;28;762;-57
2021/01/17 12:33:35;;;;;;;;;;;;;;;14.78;55.43;101039.53;5098011;28;931;-60
2021/01/17 12:36:01;;;;;;;;;;;;;;;14.83;52.71;101048.06;5097950;28;824;-62
2021/01/17 12:38:26;;;;;;;;;;;;;;;14.57;49.57;101050.63;5097915;28;786;-56
2021/01/17 12:40:51;;;;;;;;;;;;;;;13.65;49.61;101045.78;5075789;28;1448;-57
2021/01/17 12:43:17;;;;;;;;;;;;;;;14.49;50.31;101050.25;5091428;28;1382;-57
2021/01/17 12:45:42;;;;;;;;;;;;;;;15.27;52.39;101052.22;5096611;28;1949;-59
2021/01/17 12:48:07;;;;;;;;;;;;;;;15.63;52.94;101048.84;5095976;28;1404;-60
2021/01/17 12:50:32;;;;;;;;;;;;;;;15.88;51.38;101052.50;5096491;28;1484;-62